Time;durP1;ratioP1;P1;durP2;ratioP2;P2;SDS_P1;SDS_P2;PMS_P1;PMS_P2;Temp;Humidity;BMP_temperature;BMP_pressure;BME280_temperature;BME280_humidity;BME280_pressure;Samples;Min_cycle;Max_cycle;Signal;HPM_P1;HPM_P2
2024/01/22 00:01:41;;;;;;;45.20;21.13;;;;;;;-4.61;62.46;96678.66;5025289;28;20033;-77
2024/01/22 00:04:07;;;;;;;39.50;21.25;;;;;;;-4.59;62.26;96677.28;5023941;28;20136;-77
2024/01/22 00:06:35;;;;;;;46.22;22.50;;;;;;;-4.59;62.13;96669.22;5024810;28;20034;-77
2024/01/22 00:09:01;;;;;;;44.78;22.08;;;;;;;-4.57;62.24;96675.09;5024394;28;20030;-78
2024/01/22 00:11:26;;;;;;;45.03;22.73;;;;;;;-4.53;62.50;96675.25;5025286;28;20771;-77
2024/01/22 00:13:52;;;;;;;58.75;27.05;;;;;;;-4.47;61.92;96678.66;5044635;28;20602;-78
2024/01/22 00:16:17;;;;;;;58.88;28.58;;;;;;;-4.44;61.80;96678.06;5043321;28;20120;-79
2024/01/22 00:18:42;;;;;;;46.58;23.95;;;;;;;-4.39;61.75;96676.09;5042313;28;20024;-77
2024/01/22 00:21:08;;;;;;;38.35;20.00;;;;;;;-4.30;61.48;96687.72;5029336;28;20027;-77
2024/01/22 00:23:33;;;;;;;39.65;18.77;;;;;;;-4.34;61.60;96684.03;5044688;28;20075;-76
2024/01/22 00:25:59;;;;;;;38.35;19.92;;;;;;;-4.31;61.41;96691.47;5044497;28;20122;-78
2024/01/22 00:28:24;;;;;;;36.40;17.98;;;;;;;-4.17;61.25;96694.19;5042915;28;20518;-76
2024/01/22 00:30:49;;;;;;;28.95;14.90;;;;;;;-4.13;61.02;96689.81;5033899;28;20060;-77
2024/01/22 00:33:16;;;;;;;21.67;11.20;;;;;;;-4.13;61.36;96684.44;5040816;28;20114;-77
2024/01/22 00:35:41;;;;;;;35.58;16.20;;;;;;;-4.20;61.11;96689.41;5029844;28;20037;-78
2024/01/22 00:38:07;;;;;;;45.95;24.83;;;;;;;-4.23;60.42;96684.63;5047390;28;20411;-77
2024/01/22 00:40:32;;;;;;;46.78;24.17;;;;;;;-4.23;59.90;96690.00;5048732;28;20025;-77
2024/01/22 00:42:57;;;;;;;48.47;23.23;;;;;;;-4.29;59.65;96683.16;5045525;28;20664;-77
2024/01/22 00:45:23;;;;;;;42.23;22.53;;;;;;;-4.28;59.83;96679.38;5047986;28;20078;-77
2024/01/22 00:47:48;;;;;;;43.03;23.67;;;;;;;-4.33;59.41;96677.56;5047743;28;20482;-77
2024/01/22 00:50:13;;;;;;;44.20;24.27;;;;;;;-4.31;59.02;96672.69;5047668;28;20032;-77
2024/01/22 00:52:39;;;;;;;44.53;23.38;;;;;;;-4.31;58.54;96672.69;5048250;28;20032;-77
2024/01/22 00:55:04;;;;;;;48.33;24.67;;;;;;;-4.36;58.57;96667.44;5040356;28;20041;-77
2024/01/22 00:57:30;;;;;;;43.13;23.40;;;;;;;-4.33;58.90;96661.47;5027957;28;20033;-77
2024/01/22 00:59:55;;;;;;;41.95;19.50;;;;;;;-4.32;59.10;96667.63;5031288;28;20065;-77
2024/01/22 01:02:21;;;;;;;33.92;19.80;;;;;;;-4.37;59.32;96665.03;5047879;28;20104;-77
2024/01/22 01:04:46;;;;;;;45.37;22.80;;;;;;;-4.40;59.23;96676.38;5038898;28;20117;-78
2024/01/22 01:07:12;;;;;;;36.50;20.23;;;;;;;-4.42;59.46;96667.81;5035423;28;20029;-77
2024/01/22 01:09:38;;;;;;;36.93;19.97;;;;;;;-4.37;59.25;96665.81;5027915;28;20029;-77
2024/01/22 01:12:04;;;;;;;38.43;21.43;;;;;;;-4.37;59.46;96659.66;5027477;28;20040;-77
2024/01/22 01:14:29;;;;;;;39.27;21.60;;;;;;;-4.38;59.25;96658.88;5031544;28;20474;-76
2024/01/22 01:16:55;;;;;;;43.27;22.03;;;;;;;-4.36;58.60;96669.31;5044213;28;20507;-76
2024/01/22 01:19:20;;;;;;;35.85;19.15;;;;;;;-4.38;58.85;96669.63;5039827;28;20143;-77
2024/01/22 01:21:46;;;;;;;39.60;19.97;;;;;;;-4.42;59.17;96663.25;5027927;28;20029;-77
2024/01/22 01:24:11;;;;;;;42.30;19.50;;;;;;;-4.48;59.23;96651.00;5027414;28;20021;-77
2024/01/22 01:26:41;;;;;;;33.47;18.50;;;;;;;-4.47;59.04;96655.31;5027908;28;20068;-77
2024/01/22 01:29:07;;;;;;;36.10;17.77;;;;;;;-4.44;59.02;96664.66;5027056;28;20476;-77
2024/01/22 01:31:32;;;;;;;27.70;17.43;;;;;;;-4.37;58.89;96657.78;5025908;28;20036;-78
2024/01/22 01:33:57;;;;;;;40.37;18.87;;;;;;;-4.34;58.61;96662.56;5032532;28;20036;-76
2024/01/22 01:36:23;;;;;;;35.07;19.53;;;;;;;-4.42;58.83;96665.13;5047316;28;20499;-76
2024/01/22 01:38:48;;;;;;;32.83;15.93;;;;;;;-4.46;59.33;96664.16;5046354;28;20051;-77
2024/01/22 01:41:14;;;;;;;30.07;17.27;;;;;;;-4.47;59.31;96651.81;5046379;28;20417;-76
2024/01/22 01:43:39;;;;;;;31.98;16.80;;;;;;;-4.45;59.77;96657.69;5044701;28;20032;-77
2024/01/22 01:46:05;;;;;;;32.90;16.90;;;;;;;-4.45;59.78;96658.47;5045972;28;20676;-76
2024/01/22 01:48:31;;;;;;;34.57;17.93;;;;;;;-4.48;59.68;96655.59;5029355;28;20041;-77
2024/01/22 01:50:56;;;;;;;35.93;18.87;;;;;;;-4.50;59.60;96650.53;5026217;28;20033;-77
2024/01/22 01:53:22;;;;;;;29.60;16.57;;;;;;;-4.47;59.79;96646.44;5042931;28;20029;-77
2024/01/22 01:55:49;;;;;;;35.57;17.30;;;;;;;-4.55;60.13;96646.03;5026024;28;20025;-77
2024/01/22 01:58:18;;;;;;;30.13;16.87;;;;;;;-4.54;60.17;96647.63;5025652;28;20030;-76
2024/01/22 02:00:47;;;;;;;34.50;18.07;;;;;;;-4.58;60.40;96643.97;5031691;28;20032;-76
2024/01/22 02:03:12;;;;;;;38.00;18.10;;;;;;;-4.65;61.03;96643.56;5046253;28;20032;-77
2024/01/22 02:05:38;;;;;;;39.00;18.00;;;;;;;-4.53;60.51;96645.75;5046756;28;20082;-77
2024/01/22 02:08:03;;;;;;;34.03;16.73;;;;;;;-4.48;60.66;96651.00;5036856;28;20037;-77
2024/01/22 02:10:29;;;;;;;33.63;20.07;;;;;;;-4.51;60.76;96651.63;5026982;28;20439;-77
2024/01/22 02:12:54;;;;;;;37.37;19.53;;;;;;;-4.48;60.45;96653.69;5025319;28;20115;-77
2024/01/22 02:15:19;;;;;;;37.40;20.37;;;;;;;-4.59;60.56;96655.00;5027038;28;20044;-75
2024/01/22 02:17:45;;;;;;;34.93;20.27;;;;;;;-4.60;60.68;96648.03;5025685;28;20045;-77
2024/01/22 02:20:11;;;;;;;44.20;20.57;;;;;;;-4.64;60.57;96647.84;5040661;28;20569;-76
2024/01/22 02:22:36;;;;;;;31.07;16.90;;;;;;;-4.61;61.23;96649.13;5028193;28;20091;-77
2024/01/22 02:25:01;;;;;;;36.90;19.43;;;;;;;-4.64;61.42;96644.38;5030648;28;20033;-77
2024/01/22 02:27:27;;;;;;;34.87;17.37;;;;;;;-4.63;61.36;96641.38;5030223;28;20033;-78
2024/01/22 02:29:52;;;;;;;36.13;18.57;;;;;;;-4.65;61.63;96642.75;5027773;28;20033;-77
2024/01/22 02:32:18;;;;;;;36.70;19.60;;;;;;;-4.71;61.78;96634.00;5025972;28;20079;-77
2024/01/22 02:34:43;;;;;;;38.43;17.70;;;;;;;-4.69;61.70;96631.06;5025526;28;20622;-78
2024/01/22 02:37:08;;;;;;;38.57;19.50;;;;;;;-4.79;61.89;96617.81;5025861;28;20033;-76
2024/01/22 02:39:35;;;;;;;42.80;20.70;;;;;;;-4.71;62.05;96639.38;5036851;28;20035;-77
2024/01/22 02:42:01;;;;;;;46.10;19.67;;;;;;;-4.70;61.83;96632.13;5035043;28;20032;-77
2024/01/22 02:44:26;;;;;;;39.23;20.90;;;;;;;-4.78;61.85;96627.47;5025713;28;20038;-77
2024/01/22 02:46:51;;;;;;;49.27;23.10;;;;;;;-4.71;62.15;96633.22;5041448;28;20082;-77
2024/01/22 02:49:18;;;;;;;43.67;22.23;;;;;;;-4.70;62.43;96629.44;5044524;28;20028;-76
2024/01/22 02:51:43;;;;;;;50.87;22.70;;;;;;;-4.76;62.80;96631.41;5044858;28;20036;-78
2024/01/22 02:54:09;;;;;;;49.00;21.50;;;;;;;-4.76;63.00;96630.63;5045809;28;20025;-76
2024/01/22 02:56:35;;;;;;;49.50;23.67;;;;;;;-4.73;63.13;96630.84;5040901;28;20579;-77
2024/01/22 02:59:00;;;;;;;46.57;21.90;;;;;;;-4.78;63.18;96619.41;5025324;28;20100;-77
2024/01/22 03:01:26;;;;;;;46.97;20.93;;;;;;;-4.75;63.27;96629.56;5025311;28;20041;-77
2024/01/22 03:03:51;;;;;;;48.37;22.27;;;;;;;-4.74;63.41;96631.94;5025364;28;20029;-77
2024/01/22 03:06:17;;;;;;;39.43;18.97;;;;;;;-4.75;63.49;96632.25;5038322;28;20033;-77
2024/01/22 03:08:42;;;;;;;45.57;21.57;;;;;;;-4.68;63.41;96627.25;5028210;28;20033;-77
2024/01/22 03:11:08;;;;;;;48.23;22.27;;;;;;;-4.69;63.34;96634.53;5039091;28;20037;-76
2024/01/22 03:13:34;;;;;;;46.83;22.83;;;;;;;-4.73;63.30;96633.53;5024483;28;20108;-76
2024/01/22 03:15:59;;;;;;;51.73;22.77;;;;;;;-4.66;63.06;96635.81;5025118;28;20022;-77
2024/01/22 03:18:25;;;;;;;48.63;22.37;;;;;;;-4.79;63.42;96626.66;5036401;28;20075;-77
2024/01/22 03:20:50;;;;;;;53.63;23.53;;;;;;;-4.66;62.96;96638.50;5029678;28;20033;-77
2024/01/22 03:23:15;;;;;;;47.50;21.97;;;;;;;-4.72;63.21;96639.69;5024991;28;20498;-76
2024/01/22 03:25:44;;;;;;;50.37;23.40;;;;;;;-4.61;62.76;96636.50;5025424;28;20033;-76
2024/01/22 03:28:09;;;;;;;51.67;23.93;;;;;;;-4.63;62.61;96646.75;5025053;28;20478;-77
2024/01/22 03:30:34;;;;;;;46.17;22.77;;;;;;;-4.72;62.99;96648.53;5024260;28;20103;-77
2024/01/22 03:33:00;;;;;;;50.97;24.03;;;;;;;-4.75;63.15;96651.03;5024862;28;20101;-76
2024/01/22 03:35:25;;;;;;;52.63;23.80;;;;;;;-4.63;62.89;96648.66;5036132;28;20041;-78
2024/01/22 03:37:51;;;;;;;41.40;20.77;;;;;;;-4.64;62.96;96644.38;5044804;28;20102;-78
2024/01/22 03:40:16;;;;;;;48.10;22.37;;;;;;;-4.60;62.80;96648.03;5044004;28;20120;-77
2024/01/22 03:42:41;;;;;;;49.20;22.85;;;;;;;-4.59;62.46;96655.00;5044218;28;20497;-77
2024/01/22 03:45:07;;;;;;;53.20;22.27;;;;;;;-4.56;62.33;96644.47;5040093;28;20113;-77
2024/01/22 03:47:33;;;;;;;47.40;21.83;;;;;;;-4.61;61.97;96639.19;5024459;28;20395;-77
2024/01/22 03:49:58;;;;;;;45.37;21.60;;;;;;;-4.58;61.96;96637.81;5045125;28;20044;-77
2024/01/22 03:52:23;;;;;;;48.47;21.87;;;;;;;-4.65;61.63;96648.91;5043796;28;20033;-77
2024/01/22 03:54:49;;;;;;;46.65;21.35;;;;;;;-4.67;61.90;96656.47;5044824;28;20025;-76
2024/01/22 03:57:14;;;;;;;42.35;20.38;;;;;;;-4.68;61.40;96651.41;5042361;28;20036;-77
2024/01/22 03:59:41;;;;;;;49.87;22.70;;;;;;;-4.71;61.44;96646.63;5045081;28;20033;-77
2024/01/22 04:02:07;;;;;;;44.63;21.13;;;;;;;-4.72;61.42;96643.16;5026612;28;20116;-77
2024/01/22 04:04:33;;;;;;;42.13;20.07;;;;;;;-4.73;61.77;96651.50;5024511;28;20022;-76
2024/01/22 04:06:58;;;;;;;39.20;19.07;;;;;;;-4.71;61.29;96652.00;5024763;28;20051;-78
2024/01/22 04:09:24;;;;;;;39.37;21.73;;;;;;;-4.72;61.52;96645.84;5023945;28;20034;-77
2024/01/22 04:11:49;;;;;;;41.90;21.23;;;;;;;-4.70;61.52;96642.84;5031090;28;20041;-77
2024/01/22 04:14:15;;;;;;;49.70;21.23;;;;;;;-4.72;61.80;96650.41;5038554;28;20042;-79
2024/01/22 04:16:41;;;;;;;39.13;19.63;;;;;;;-4.71;61.63;96647.44;5028432;28;20084;-78
2024/01/22 04:19:06;;;;;;;43.70;21.20;;;;;;;-4.73;61.53;96646.94;5033666;28;20029;-78
2024/01/22 04:21:32;;;;;;;41.60;21.67;;;;;;;-4.77;61.63;96653.97;5046693;28;20033;-78
2024/01/22 04:23:57;;;;;;;48.00;22.90;;;;;;;-4.71;61.65;96654.69;5032335;28;20407;-76
2024/01/22 04:26:22;;;;;;;49.77;22.43;;;;;;;-4.75;61.75;96643.78;5042976;28;20032;-77
2024/01/22 04:28:48;;;;;;;42.83;19.80;;;;;;;-4.79;61.50;96648.13;5028818;28;20436;-77
2024/01/22 04:31:13;;;;;;;39.97;19.30;;;;;;;-4.69;61.61;96644.47;5027407;28;20335;-77
2024/01/22 04:33:42;;;;;;;44.87;21.33;;;;;;;-4.79;61.32;96641.97;5028506;28;20450;-77
2024/01/22 04:36:08;;;;;;;41.50;19.70;;;;;;;-4.79;61.41;96642.75;5027453;28;20452;-77
2024/01/22 04:38:33;;;;;;;36.53;19.17;;;;;;;-4.83;61.62;96642.53;5028216;28;20034;-77
2024/01/22 04:40:58;;;;;;;37.93;20.53;;;;;;;-4.84;61.72;96642.84;5034324;28;20125;-78
2024/01/22 04:43:24;;;;;;;38.73;19.73;;;;;;;-4.82;61.56;96649.53;5047798;28;20021;-79
2024/01/22 04:45:49;;;;;;;35.80;19.27;;;;;;;-4.79;61.16;96645.44;5048013;28;20504;-78
2024/01/22 04:48:15;;;;;;;40.87;18.90;;;;;;;-4.80;61.41;96646.53;5047032;28;20535;-77
2024/01/22 04:50:40;;;;;;;34.43;18.63;;;;;;;-4.88;60.77;96633.78;5048426;28;20021;-79
2024/01/22 04:53:06;;;;;;;38.50;19.07;;;;;;;-4.75;60.68;96657.19;5037589;28;20754;-79
2024/01/22 04:55:31;;;;;;;40.70;19.93;;;;;;;-4.72;60.30;96655.78;5038574;28;20091;-79
2024/01/22 04:57:57;;;;;;;39.93;19.67;;;;;;;-4.78;60.36;96657.75;5046212;28;20040;-80
2024/01/22 05:00:22;;;;;;;39.70;18.47;;;;;;;-4.75;60.32;96656.38;5047485;28;20057;-77
2024/01/22 05:02:48;;;;;;;40.10;20.77;;;;;;;-4.83;61.11;96660.53;5047542;28;20057;-78
2024/01/22 05:05:13;;;;;;;40.70;18.97;;;;;;;-4.80;61.59;96649.22;5041055;28;20496;-79
2024/01/22 05:07:39;;;;;;;37.73;19.03;;;;;;;-4.76;61.76;96660.13;5027923;28;20450;-79
2024/01/22 05:10:06;;;;;;;39.93;19.40;;;;;;;-4.76;61.88;96655.56;5028179;28;20025;-79
2024/01/22 05:12:31;;;;;;;35.83;19.00;;;;;;;-4.75;61.67;96659.88;5047421;28;20032;-80
2024/01/22 05:14:57;;;;;;;36.03;19.67;;;;;;;-4.75;61.84;96659.06;5047150;28;20044;-79
2024/01/22 05:17:23;;;;;;;36.40;18.60;;;;;;;-4.88;62.08;96656.06;5046412;28;20057;-79
2024/01/22 05:19:49;;;;;;;39.53;18.50;;;;;;;-4.73;61.42;96663.03;5040804;28;20026;-79
2024/01/22 05:22:14;;;;;;;35.13;17.70;;;;;;;-4.79;61.25;96669.59;5026937;28;20025;-77
2024/01/22 05:24:40;;;;;;;30.30;19.10;;;;;;;-4.89;61.73;96667.09;5035646;28;20579;-78
2024/01/22 05:27:07;;;;;;;34.63;17.53;;;;;;;-4.78;61.17;96671.19;5046246;28;20036;-78
2024/01/22 05:29:33;;;;;;;35.90;16.70;;;;;;;-4.81;60.48;96656.47;5047395;28;20116;-78
2024/01/22 05:31:58;;;;;;;36.73;18.47;;;;;;;-4.82;60.89;96665.63;5033878;28;20120;-78
2024/01/22 05:34:24;;;;;;;29.73;18.23;;;;;;;-4.79;60.53;96661.53;5029364;28;20022;-79
2024/01/22 05:36:49;;;;;;;36.67;17.73;;;;;;;-4.81;60.09;96659.16;5046603;28;20400;-78
2024/01/22 05:39:15;;;;;;;39.10;17.73;;;;;;;-4.80;59.91;96665.31;5045542;28;20688;-79
2024/01/22 05:41:41;;;;;;;32.50;17.80;;;;;;;-4.77;59.88;96656.66;5046968;28;20037;-78
2024/01/22 05:44:07;;;;;;;37.87;18.87;;;;;;;-4.77;60.24;96653.19;5046386;28;20025;-78
2024/01/22 05:46:33;;;;;;;30.77;15.60;;;;;;;-4.75;59.85;96649.13;5045612;28;20029;-77
2024/01/22 05:48:58;;;;;;;34.77;17.30;;;;;;;-4.81;59.96;96653.00;5026798;28;20065;-78
2024/01/22 05:51:24;;;;;;;34.87;17.37;;;;;;;-4.81;59.57;96648.44;5027044;28;20088;-78
2024/01/22 05:53:49;;;;;;;33.27;16.57;;;;;;;-4.79;59.94;96650.81;5026659;28;20033;-78
2024/01/22 05:56:22;;;;;;;35.73;18.27;;;;;;;-4.96;60.29;96631.81;5028127;28;20481;-78
2024/01/22 05:58:49;;;;;;;29.98;16.83;;;;;;;-4.85;60.47;96657.38;5046863;28;20130;-78
2024/01/22 06:01:25;;;;;;;40.07;19.87;;;;;;;-4.82;60.72;96668.31;5046738;28;20108;-79
2024/01/22 06:03:50;;;;;;;35.47;17.23;;;;;;;-4.80;60.61;96670.69;5047107;28;20096;-78
2024/01/22 06:06:16;;;;;;;39.57;17.67;;;;;;;-4.88;61.19;96669.47;5045736;28;20100;-83
2024/01/22 06:08:46;;;;;;;33.47;17.33;;;;;;;-4.93;61.38;96666.91;5040004;28;20041;-78
2024/01/22 06:11:12;;;;;;;35.10;18.73;;;;;;;-4.80;61.07;96686.78;5026342;28;20033;-81
2024/01/22 06:13:41;;;;;;;34.10;18.33;;;;;;;-4.82;61.00;96672.84;5028477;28;20029;-78
2024/01/22 06:16:11;;;;;;;31.80;17.73;;;;;;;-4.85;61.19;96682.31;5039942;28;20112;-80
2024/01/22 06:18:37;;;;;;;40.53;20.37;;;;;;;-4.75;61.17;96681.34;5047845;28;20483;-78
2024/01/22 06:21:04;;;;;;;35.97;19.47;;;;;;;-4.78;61.12;96689.16;5045071;28;20067;-77
2024/01/22 06:23:31;;;;;;;33.20;18.70;;;;;;;-4.82;61.51;96681.72;5035780;28;20017;-78
2024/01/22 06:25:56;;;;;;;38.37;16.77;;;;;;;-4.72;61.00;96682.63;5048225;28;20090;-78
2024/01/22 06:28:23;;;;;;;35.30;16.57;;;;;;;-4.72;60.96;96679.94;5044238;28;20116;-78
2024/01/22 06:30:49;;;;;;;27.17;15.17;;;;;;;-4.73;60.62;96676.47;5043349;28;20040;-78
2024/01/22 06:33:14;;;;;;;34.73;16.37;;;;;;;-4.67;60.30;96677.16;5024936;28;20041;-78
2024/01/22 06:35:39;;;;;;;29.80;16.43;;;;;;;-4.63;60.02;96684.31;5026130;28;20120;-78
2024/01/22 06:38:05;;;;;;;32.57;16.93;;;;;;;-4.70;60.25;96680.41;5031717;28;20044;-78
2024/01/22 06:40:31;;;;;;;42.47;19.77;;;;;;;-4.74;61.47;96682.91;5045401;28;20029;-77
2024/01/22 06:42:56;;;;;;;38.00;19.53;;;;;;;-4.78;62.46;96689.16;5044836;28;20039;-77
2024/01/22 06:45:22;;;;;;;35.50;17.30;;;;;;;-4.75;62.76;96692.06;5043649;28;20463;-78
2024/01/22 06:47:47;;;;;;;36.80;17.77;;;;;;;-4.68;62.73;96691.69;5045888;28;20456;-77
2024/01/22 06:50:12;;;;;;;36.33;17.90;;;;;;;-4.64;62.69;96688.09;5045278;28;20029;-79
2024/01/22 06:52:38;;;;;;;38.83;19.33;;;;;;;-4.62;62.62;96693.16;5045723;28;20028;-78
2024/01/22 06:55:05;;;;;;;38.43;18.10;;;;;;;-4.50;62.17;96696.16;5045146;28;20033;-77
2024/01/22 06:57:30;;;;;;;35.67;17.53;;;;;;;-4.56;62.11;96703.50;5045035;28;20056;-78
2024/01/22 06:59:56;;;;;;;36.23;18.83;;;;;;;-4.53;61.67;96704.78;5045610;28;20048;-78
2024/01/22 07:02:26;;;;;;;34.53;17.70;;;;;;;-4.50;61.54;96701.53;5044639;28;20025;-79
2024/01/22 07:04:57;;;;;;;35.37;17.53;;;;;;;-4.46;61.54;96701.75;5045557;28;20383;-78
2024/01/22 07:07:23;;;;;;;37.57;17.40;;;;;;;-4.40;61.15;96706.72;5044677;28;20029;-79
2024/01/22 07:09:48;;;;;;;37.57;17.93;;;;;;;-4.42;60.78;96697.34;5045117;28;20025;-79
2024/01/22 07:12:15;;;;;;;37.10;18.57;;;;;;;-4.47;60.52;96702.81;5044858;28;20032;-78
2024/01/22 07:14:41;;;;;;;38.50;19.33;;;;;;;-4.45;60.58;96703.34;5045240;28;20108;-78
2024/01/22 07:17:06;;;;;;;34.80;16.00;;;;;;;-4.47;60.39;96709.00;5044851;28;20164;-78
2024/01/22 07:19:32;;;;;;;36.57;18.33;;;;;;;-4.45;60.28;96709.50;5044527;28;20020;-78
2024/01/22 07:21:57;;;;;;;37.20;18.27;;;;;;;-4.44;60.58;96699.56;5045477;28;20032;-78
2024/01/22 07:24:23;;;;;;;34.97;18.27;;;;;;;-4.46;60.65;96707.13;5044695;28;20035;-78
2024/01/22 07:26:48;;;;;;;39.27;19.43;;;;;;;-4.45;60.58;96697.97;5045597;28;20025;-77
2024/01/22 07:29:13;;;;;;;40.30;18.60;;;;;;;-4.45;61.02;96701.44;5044721;28;20491;-77
2024/01/22 07:31:39;;;;;;;42.13;20.93;;;;;;;-4.46;61.54;96693.69;5044705;28;20036;-78
2024/01/22 07:34:05;;;;;;;36.93;20.00;;;;;;;-4.47;61.49;96687.53;5045123;28;20447;-78
2024/01/22 07:36:31;;;;;;;37.40;20.80;;;;;;;-4.36;61.53;96693.47;5044221;28;20028;-78
2024/01/22 07:38:57;;;;;;;40.43;19.03;;;;;;;-4.39;61.33;96686.03;5045332;28;20032;-78
2024/01/22 07:41:23;;;;;;;42.60;20.63;;;;;;;-4.30;61.29;96689.59;5044117;28;20104;-77
2024/01/22 07:43:48;;;;;;;38.40;20.47;;;;;;;-4.19;60.88;96693.66;5044631;28;20583;-77
2024/01/22 07:46:14;;;;;;;45.33;20.67;;;;;;;-4.19;60.86;96699.03;5044345;28;20033;-78
2024/01/22 07:48:40;;;;;;;45.15;20.85;;;;;;;-4.18;60.67;96692.59;5045415;28;20028;-78
2024/01/22 07:51:06;;;;;;;47.57;21.77;;;;;;;-4.19;60.92;96692.88;5044489;28;20029;-78
2024/01/22 07:53:32;;;;;;;47.17;23.47;;;;;;;-4.09;60.47;96684.63;5044329;28;20214;-77
2024/01/22 07:55:57;;;;;;;41.67;20.63;;;;;;;-4.08;60.45;96683.50;5044653;28;20025;-78
2024/01/22 07:58:23;;;;;;;50.73;23.33;;;;;;;-4.03;60.55;96684.22;5043893;28;20029;-77
2024/01/22 08:00:48;;;;;;;50.10;23.23;;;;;;;-3.97;60.55;96682.22;5044785;28;20104;-77
2024/01/22 08:03:13;;;;;;;50.90;23.07;;;;;;;-3.97;59.97;96668.78;5044884;28;20144;-80
2024/01/22 08:05:39;;;;;;;50.60;23.65;;;;;;;-3.83;59.76;96679.50;5043628;28;20047;-77
2024/01/22 08:08:06;;;;;;;45.05;22.60;;;;;;;-3.85;59.56;96677.09;5043259;28;20506;-78
2024/01/22 08:10:32;;;;;;;47.42;22.10;;;;;;;-3.83;59.41;96663.38;5043286;28;20036;-76
2024/01/22 08:12:57;;;;;;;45.08;22.65;;;;;;;-3.84;59.27;96665.28;5043260;28;20029;-76
2024/01/22 08:15:22;;;;;;;45.00;22.20;;;;;;;-3.87;59.48;96646.28;5043878;28;20068;-78
2024/01/22 08:17:48;;;;;;;44.80;23.10;;;;;;;-3.77;59.31;96654.13;5044626;28;20065;-77
2024/01/22 08:20:13;;;;;;;42.03;21.77;;;;;;;-3.75;59.09;96654.59;5043989;28;20021;-76
2024/01/22 08:22:39;;;;;;;43.95;22.73;;;;;;;-3.67;59.10;96658.44;5044488;28;20025;-79
2024/01/22 08:25:05;;;;;;;49.22;22.35;;;;;;;-3.68;59.03;96652.28;5044289;28;20033;-76
2024/01/22 08:27:30;;;;;;;42.30;21.08;;;;;;;-3.66;59.43;96660.84;5044158;28;20079;-77
2024/01/22 08:29:55;;;;;;;45.67;20.23;;;;;;;-3.65;59.29;96678.56;5044212;28;20029;-76
2024/01/22 08:32:21;;;;;;;40.73;22.03;;;;;;;-3.65;58.95;96673.19;5043931;28;20314;-76
2024/01/22 08:34:46;;;;;;;44.00;21.10;;;;;;;-3.62;59.05;96675.25;5044885;28;20096;-77
2024/01/22 08:37:12;;;;;;;45.72;22.92;;;;;;;-3.57;58.87;96677.84;5043535;28;20483;-76
2024/01/22 08:39:37;;;;;;;43.65;22.40;;;;;;;-3.55;58.66;96670.28;5044360;28;20100;-75
2024/01/22 08:42:02;;;;;;;40.45;21.25;;;;;;;-3.45;58.26;96671.13;5043555;28;20048;-77
2024/01/22 08:44:28;;;;;;;49.00;20.05;;;;;;;-3.41;58.03;96669.44;5044068;28;20107;-78
2024/01/22 08:46:53;;;;;;;44.50;19.80;;;;;;;-3.38;58.19;96664.25;5043871;28;20036;-77
2024/01/22 08:49:19;;;;;;;38.50;19.67;;;;;;;-3.31;57.88;96656.53;5044164;28;20446;-77
2024/01/22 08:51:44;;;;;;;45.75;18.95;;;;;;;-3.31;57.76;96663.81;5044144;28;20040;-77
2024/01/22 08:54:09;;;;;;;49.03;22.58;;;;;;;-3.38;57.83;96669.63;5043206;28;20048;-78
2024/01/22 08:56:35;;;;;;;48.80;20.83;;;;;;;-3.38;57.73;96666.94;5044687;28;20036;-78
2024/01/22 08:59:00;;;;;;;45.00;20.83;;;;;;;-3.47;58.27;96676.81;5047257;28;20461;-76
2024/01/22 09:01:26;;;;;;;46.47;20.33;;;;;;;-3.50;58.37;96677.41;5047610;28;20033;-78
2024/01/22 09:03:51;;;;;;;41.30;18.58;;;;;;;-3.43;58.27;96677.81;5047484;28;20029;-76
2024/01/22 09:06:16;;;;;;;43.53;20.17;;;;;;;-3.39;58.21;96675.28;5047527;28;20025;-77
2024/01/22 09:08:42;;;;;;;49.67;21.33;;;;;;;-3.39;58.10;96672.59;5047660;28;20029;-77
2024/01/22 09:11:08;;;;;;;42.70;20.40;;;;;;;-3.33;58.31;96674.06;5047514;28;20029;-77
2024/01/22 09:13:33;;;;;;;54.55;21.40;;;;;;;-3.36;58.79;96663.94;5047489;28;20078;-76
2024/01/22 09:15:59;;;;;;;46.92;20.52;;;;;;;-3.41;58.84;96656.78;5047132;28;20108;-77
2024/01/22 09:18:25;;;;;;;48.83;20.45;;;;;;;-3.34;58.45;96661.72;5047277;28;20401;-77
2024/01/22 09:20:52;;;;;;;47.03;21.15;;;;;;;-3.34;58.48;96654.44;5047095;28;20025;-77
2024/01/22 09:23:17;;;;;;;48.40;21.77;;;;;;;-3.26;58.36;96659.09;5047298;28;20029;-78
2024/01/22 09:25:43;;;;;;;46.20;20.75;;;;;;;-3.30;58.39;96652.75;5047335;28;20037;-77
2024/01/22 09:28:08;;;;;;;43.25;20.80;;;;;;;-3.32;58.40;96656.84;5047445;28;20025;-76
2024/01/22 09:30:34;;;;;;;42.40;19.75;;;;;;;-3.21;58.37;96663.56;5046807;28;20189;-76
2024/01/22 09:32:59;;;;;;;49.83;23.90;;;;;;;-3.21;58.19;96658.19;5046601;28;20029;-77
2024/01/22 09:35:25;;;;;;;56.47;23.15;;;;;;;-3.15;58.22;96659.66;5046060;28;20041;-77
2024/01/22 09:37:51;;;;;;;49.15;22.55;;;;;;;-3.03;57.88;96659.88;5046711;28;20032;-77
2024/01/22 09:40:17;;;;;;;44.10;22.50;;;;;;;-3.01;57.76;96657.69;5047056;28;20490;-77
2024/01/22 09:42:44;;;;;;;49.63;23.15;;;;;;;-2.94;57.87;96652.66;5047019;28;20032;-78
2024/01/22 09:45:09;;;;;;;54.70;25.23;;;;;;;-2.84;57.37;96656.19;5045658;28;20103;-77
2024/01/22 09:47:37;;;;;;;52.00;23.98;;;;;;;-2.77;57.23;96659.22;5046837;28;20415;-76
2024/01/22 09:50:03;;;;;;;55.00;23.83;;;;;;;-2.76;57.22;96653.53;5046863;28;20041;-77
2024/01/22 09:52:28;;;;;;;50.47;23.90;;;;;;;-2.79;57.08;96632.63;5046961;28;20055;-78
2024/01/22 09:54:56;;;;;;;51.95;24.05;;;;;;;-2.72;57.06;96648.31;5046673;28;20097;-75
2024/01/22 09:57:27;;;;;;;51.83;24.08;;;;;;;-2.69;56.59;96640.44;5045181;28;20040;-77
2024/01/22 09:59:52;;;;;;;43.63;22.08;;;;;;;-2.61;56.51;96643.47;5046671;28;20055;-77
2024/01/22 10:02:18;;;;;;;51.03;25.08;;;;;;;-2.48;56.27;96639.88;5045460;28;20139;-76
2024/01/22 10:04:44;;;;;;;50.33;24.48;;;;;;;-2.33;55.95;96639.47;5045144;28;20060;-77
2024/01/22 10:07:13;;;;;;;45.17;22.92;;;;;;;-2.23;55.66;96638.38;5045802;28;20163;-76
2024/01/22 10:09:38;;;;;;;46.90;22.17;;;;;;;-2.19;55.45;96634.72;5046532;28;20021;-76
2024/01/22 10:12:05;;;;;;;54.03;24.98;;;;;;;-2.08;55.24;96629.84;5046136;28;20032;-76
2024/01/22 10:14:31;;;;;;;52.28;23.67;;;;;;;-1.99;54.97;96624.47;5046467;28;20510;-77
2024/01/22 10:16:57;;;;;;;49.45;24.77;;;;;;;-1.94;54.89;96621.63;5044415;28;20056;-75
2024/01/22 10:19:26;;;;;;;59.53;26.20;;;;;;;-1.66;54.48;96619.44;5045090;28;20035;-76
2024/01/22 10:22:00;;;;;;;52.70;25.80;;;;;;;-1.48;53.65;96612.13;5046114;28;20060;-77
2024/01/22 10:24:25;;;;;;;;;;;;;;;-1.38;53.02;96609.09;5046456;28;20102;-77
2024/01/22 10:26:51;;;;;;;52.72;23.10;;;;;;;-1.23;53.16;96608.59;5046326;28;20016;-77
2024/01/22 10:29:18;;;;;;;48.92;23.38;;;;;;;-0.89;52.38;96613.13;5045396;28;20052;-77
2024/01/22 10:32:00;;;;;;;49.65;23.88;;;;;;;-0.58;51.55;96618.25;5046411;28;20036;-77
2024/01/22 10:34:29;;;;;;;52.22;23.95;;;;;;;-0.49;51.48;96603.94;5045620;28;20057;-77
2024/01/22 10:37:07;;;;;;;60.15;26.60;;;;;;;-0.25;50.60;96604.13;5046231;28;20033;-77
2024/01/22 10:39:38;;;;;;;54.10;26.42;;;;;;;-0.29;50.43;96570.75;5045813;28;20036;-77
2024/01/22 10:42:16;;;;;;;51.53;24.50;;;;;;;0.29;49.29;96598.88;5045455;28;20690;-76
2024/01/22 10:44:46;;;;;;;51.17;24.77;;;;;;;0.54;48.50;96591.66;5044754;28;20479;-77
2024/01/22 10:47:12;;;;;;;52.90;25.95;;;;;;;0.68;48.11;96592.13;5045287;28;20021;-78
2024/01/22 10:49:38;;;;;;;52.72;24.27;;;;;;;0.69;48.32;96582.91;5045966;28;20029;-78
2024/01/22 10:52:04;;;;;;;58.30;25.98;;;;;;;0.90;47.45;96571.22;5045282;28;20419;-75
2024/01/22 10:54:33;;;;;;;51.40;26.10;;;;;;;1.49;46.95;96568.16;5045158;28;20029;-76
2024/01/22 10:57:04;;;;;;;53.15;25.70;;;;;;;1.95;45.73;96566.91;5045634;28;20495;-74
2024/01/22 10:59:38;;;;;;;53.67;26.15;;;;;;;3.26;42.89;96565.47;5044711;28;20036;-76
2024/01/22 11:02:05;;;;;;;51.67;26.23;;;;;;;4.24;41.37;96568.16;5045784;28;20025;-77
2024/01/22 11:04:36;;;;;;;53.55;26.30;;;;;;;4.94;39.07;96562.59;5044903;28;20751;-76
2024/01/22 11:07:02;;;;;;;49.03;26.27;;;;;;;6.28;36.83;96567.91;5044151;28;20482;-76
2024/01/22 11:09:33;;;;;;;51.78;26.08;;;;;;;7.31;34.94;96565.63;5027096;28;20029;-77
2024/01/22 11:12:09;;;;;;;54.72;28.10;;;;;;;9.48;31.34;96573.53;5045077;28;20056;-77